Map

Track Data

SID SEASON NUMBER BASIN SUBBASIN NAME ISO_TIME NATURE LAT LON WMO_WIND WMO_PRES WMO_AGENCY TRACK_TYPE DIST2LAND LANDFALL IFLAG USA_AGENCY USA_ATCF_ID USA_LAT USA_LON USA_RECORD USA_STATUS USA_WIND USA_PRES USA_SSHS USA_R34_NE USA_R34_SE USA_R34_SW USA_R34_NW USA_R50_NE USA_R50_SE USA_R50_SW USA_R50_NW USA_R64_NE USA_R64_SE USA_R64_SW USA_R64_NW USA_POCI USA_ROCI USA_RMW USA_EYE TOKYO_LAT TOKYO_LON TOKYO_GRADE TOKYO_WIND TOKYO_PRES TOKYO_R50_DIR TOKYO_R50_LONG TOKYO_R50_SHORT TOKYO_R30_DIR TOKYO_R30_LONG TOKYO_R30_SHORT TOKYO_LAND CMA_LAT CMA_LON CMA_CAT CMA_WIND CMA_PRES HKO_LAT HKO_LON HKO_CAT HKO_WIND HKO_PRES NEWDELHI_LAT NEWDELHI_LON NEWDELHI_GRADE NEWDELHI_WIND NEWDELHI_PRES NEWDELHI_CI NEWDELHI_DP NEWDELHI_POCI REUNION_LAT REUNION_LON REUNION_TYPE REUNION_WIND REUNION_PRES REUNION_TNUM REUNION_CI REUNION_RMW REUNION_R34_NE REUNION_R34_SE REUNION_R34_SW REUNION_R34_NW REUNION_R50_NE REUNION_R50_SE REUNION_R50_SW REUNION_R50_NW REUNION_R64_NE REUNION_R64_SE REUNION_R64_SW REUNION_R64_NW BOM_LAT BOM_LON BOM_TYPE BOM_WIND BOM_PRES BOM_TNUM BOM_CI BOM_RMW BOM_R34_NE BOM_R34_SE BOM_R34_SW BOM_R34_NW BOM_R50_NE BOM_R50_SE BOM_R50_SW BOM_R50_NW BOM_R64_NE BOM_R64_SE BOM_R64_SW BOM_R64_NW BOM_ROCI BOM_POCI BOM_EYE BOM_POS_METHOD BOM_PRES_METHOD NADI_LAT NADI_LON NADI_CAT NADI_WIND NADI_PRES WELLINGTON_LAT WELLINGTON_LON WELLINGTON_WIND WELLINGTON_PRES DS824_LAT DS824_LON DS824_STAGE DS824_WIND DS824_PRES TD9636_LAT TD9636_LON TD9636_STAGE TD9636_WIND TD9636_PRES TD9635_LAT TD9635_LON TD9635_WIND TD9635_PRES TD9635_ROCI NEUMANN_LAT NEUMANN_LON NEUMANN_CLASS NEUMANN_WIND NEUMANN_PRES MLC_LAT MLC_LON MLC_CLASS MLC_WIND MLC_PRES USA_GUST BOM_GUST BOM_GUST_PER REUNION_GUST REUNION_GUST_PER USA_SEAHGT USA_SEARAD_NE USA_SEARAD_SE USA_SEARAD_SW USA_SEARAD_NW STORM_SPEED STORM_DIR
1979214N12136 1979 63 WP MM NOT_NAMED 1979-08-02 06:00:00 TS 11.7000 135.900 main 1097 1052 O________O____ jtwc_wp WP111979 11.7000 135.900 15 -1 11.7000 135.900 TC 15 12 302
1979214N12136 1979 63 WP MM NOT_NAMED 1979-08-02 09:00:00 TS 12.0127 135.390 main 1052 1002 P________P____ WP111979 12.0127 135.390 15 -1 12.0127 135.390 TC 15 12 302
1979214N12136 1979 63 WP MM NOT_NAMED 1979-08-02 12:00:00 TS 12.3000 134.900 main 1002 962 O________OO___ jtwc_wp WP111979 12.3000 134.900 15 -1 12.3000 134.900 TC 15 12.3000 134.900 1 15 11 301
1979214N12136 1979 63 WP MM NOT_NAMED 1979-08-02 15:00:00 TS 12.5584 134.445 main 953 915 P________PP___ WP111979 12.5499 134.442 15 -1 12.5499 134.442 TC 15 12.5927 134.455 1 15 10 301
1979214N12136 1979 63 WP MM NOT_NAMED 1979-08-02 18:00:00 TS 12.8213 134.002 main 915 880 O________OP___ jtwc_wp WP111979 12.8000 134.000 15 -1 12.8000 134.000 TC 15 12.8780 134.008 1 15 10 303
1979214N12136 1979 63 WP MM NOT_NAMED 1979-08-02 21:00:00 TS 13.1164 133.557 main 880 844 P________PP___ WP111979 13.0999 133.557 15 -1 13.0999 133.557 TC 15 13.1493 133.557 1 15 10 305
1979214N12136 1979 63 WP MM NOT_NAMED 1979-08-03 00:00:00 TS 13.4077 133.131 main 835 796 O_O______OO___ jtwc_wp WP111979 13.4000 133.100 15 -1 13.5000 133.500 0 17 1005 13.4000 133.100 TC 15 13.4000 133.100 1 15 10 301
1979214N12136 1979 63 WP MM NOT_NAMED 1979-08-03 03:00:00 TS 13.6538 132.655 main 798 748 P_P______PP___ WP111979 13.6725 132.593 15 -1 13.6353 132.940 0 18 1004 13.6725 132.593 TC 15 13.6255 132.638 1 15 10 296
1979214N12136 1979 63 WP MM NOT_NAMED 1979-08-03 06:00:00 TS 13.8613 132.181 main 750 711 O_O______OP___ jtwc_wp WP111979 13.9000 132.100 15 -1 13.8000 132.400 0 19 1004 13.9000 132.100 TC 15 13.8299 132.177 1 15 10 294
1979214N12136 1979 63 WP MM NOT_NAMED 1979-08-03 09:00:00 TS 14.0391 131.748 main 701 666 P_P______PP___ WP111979 14.0648 131.685 15 -1 14.0073 131.893 0 19 1004 14.0648 131.685 TC 15 14.0193 131.728 1 15 9 292
1979214N12136 1979 63 WP MM NOT_NAMED 1979-08-03 12:00:00 TS 14.2000 131.325 main 666 630 O_O______OO___ jtwc_wp WP111979 14.2000 131.300 15 -1 14.2000 131.400 0 19 1004 14.2000 131.300 TC 15 14.2000 131.300 1 15 9 290
1979214N12136 1979 63 WP MM NOT_NAMED 1979-08-03 15:00:00 TS 14.3358 130.889 main 630 599 P_P______PP___ WP111979 14.3425 130.892 17 -1 14.2925 130.877 0 19 1003 14.3425 130.892 TC 17 14.3657 130.895 1 16 9 289
1979214N12136 1979 63 WP MM NOT_NAMED 1979-08-03 18:00:00 TS 14.4818 130.478 main 599 571 O_O______OP___ jtwc_wp WP111979 14.5000 130.500 20 -1 14.4000 130.400 0 19 1002 14.5000 130.500 TC 20 14.5272 130.512 1 17 8 294
1979214N12136 1979 63 WP MM NOT_NAMED 1979-08-03 21:00:00 TS 14.6762 130.115 main 571 554 P_P______PP___ WP111979 14.6924 130.142 20 -1 14.6198 130.027 0 19 1002 14.6924 130.142 TC 20 14.7001 130.148 1 18 8 302
1979214N12136 1979 63 WP MM NOT_NAMED 1979-08-04 00:00:00 TS 14.9000 129.775 main 554 532 O_O______OO___ jtwc_wp WP111979 14.9000 129.800 20 -1 14.9000 129.700 0 19 1002 14.9000 129.800 TC 20 14.9000 129.800 1 20 8 303
1979214N12136 1979 63 WP MM NOT_NAMED 1979-08-04 03:00:00 TS 15.1154 129.420 main 532 521 P_P______PP___ WP111979 15.0775 129.442 20 -1 15.1850 129.342 0 19 1002 15.0775 129.442 TC 20 15.1217 129.452 1 20 8 305
1979214N12136 1979 63 WP MM NOT_NAMED 1979-08-04 06:00:00 TS 15.3687 129.080 main 528 510 O_O______OP___ jtwc_wp WP111979 15.3000 129.100 20 -1 15.5000 129.000 0 19 1002 15.3000 129.100 TC 20 15.3748 129.120 1 20 9 312
1979214N12136 1979 63 WP MM NOT_NAMED 1979-08-04 09:00:00 TS 15.6888 128.764 main 514 499 P_P______PP___ WP111979 15.6275 128.785 20 -1 15.8350 128.685 0 19 1002 15.6275 128.785 TC 20 15.6655 128.802 1 20 9 319
1979214N12136 1979 63 WP MM NOT_NAMED 1979-08-04 12:00:00 TS 16.0500 128.475 main 504 491 O_O______OO___ jtwc_wp WP111979 16.0000 128.500 20 -1 16.2000 128.400 0 19 1002 16.0000 128.500 TC 20 16.0000 128.500 1 20 9 324
1979214N12136 1979 63 WP MM NOT_NAMED 1979-08-04 15:00:00 TS 16.4102 128.226 main 494 492 P_P______PP___ WP111979 16.3274 128.250 20 -1 16.5924 128.157 0 21 1001 16.3274 128.250 TC 20 16.3935 128.247 1 20 9 328
1979214N12136 1979 63 WP MM NOT_NAMED 1979-08-04 18:00:00 TS 16.8066 127.975 main 504 503 O_O______OP___ jtwc_wp WP111979 16.7000 128.000 20 -1 17.0000 127.900 1 23 1000 16.7000 128.000 TC 20 16.8266 128.002 1 20 10 329
1979214N12136 1979 63 WP MM NOT_NAMED 1979-08-04 21:00:00 TS 17.2603 127.694 main 518 511 P_P______PP___ WP111979 17.1849 127.730 20 -1 17.3999 127.587 1 26 999 17.1849 127.730 TC 20 17.2714 127.731 1 20 11 327
1979214N12136 1979 63 WP MM NOT_NAMED 1979-08-05 00:00:00 TS 17.7118 127.353 main 526 482 O_OO_____OO___ jtwc_wp WP111979 17.7000 127.400 20 -1 17.8000 127.200 1 29 998 17.5000 127.400 TD 25 1000 17.7000 127.400 TC 20 17.7000 127.400 1 20 12 321
1979214N12136 1979 63 WP MM NOT_NAMED 1979-08-05 03:00:00 TS 18.1588 126.919 main 485 443 P_PP_____PP___ WP111979 18.1874 126.988 22 -1 18.2152 126.700 1 29 998 18.0252 126.961 TD 25 999 18.1874 126.988 TC 22 18.1121 126.982 1 21 12 314
1979214N12136 1979 63 WP MM NOT_NAMED 1979-08-05 06:00:00 TS 18.5626 126.437 main 432 392 O_OO_____OP___ jtwc_wp WP111979 18.6000 126.500 25 -1 18.6000 126.200 1 29 998 18.5000 126.500 TD 25 999 18.6000 126.500 TC 25 18.4973 126.498 1 22 12 309
1979214N12136 1979 63 WP MM NOT_NAMED 1979-08-05 09:00:00 TS 18.8941 125.958 main 393 345 P_PP_____PP___ WP111979 18.9098 125.980 25 -1 18.9296 125.857 1 26 999 18.8874 126.007 TD 25 998 18.9098 125.980 TC 25 18.8338 125.966 1 23 11 301
1979214N12136 1979 63 WP MM NOT_NAMED 1979-08-05 12:00:00 TS 19.1400 125.440 main 335 291 O_OO_____OO___ jtwc_wp WP111979 19.1000 125.400 25 -1 19.2000 125.500 1 23 1000 19.2000 125.500 TD 25 998 19.1000 125.400 TC 25 19.1000 125.400 1 25 11 291
1979214N12136 1979 63 WP MM NOT_NAMED 1979-08-05 15:00:00 TS 19.2889 124.865 main 291 238 P_PP_____PP___ WP111979 19.1651 124.750 22 -1 19.4151 124.980 1 23 1000 19.4723 125.007 TD 25 998 19.1651 124.750 TC 22 19.2267 124.838 1 23 11 283
1979214N12136 1979 63 WP MM NOT_NAMED 1979-08-05 18:00:00 TS 19.3984 124.270 main 238 191 O_OO_____OP___ jtwc_wp WP111979 19.2000 124.100 20 -1 19.6000 124.400 1 23 1000 19.7000 124.500 TD 25 998 19.2000 124.100 TC 20 19.2918 124.249 1 22 11 282
1979214N12136 1979 63 WP MM NOT_NAMED 1979-08-05 21:00:00 TS 19.5190 123.704 main 191 170 P_PP_____PP___ WP111979 19.2747 123.534 20 -1 19.7773 123.857 1 23 1000 19.9074 123.957 TD 25 998 19.2747 123.534 TC 20 19.3610 123.635 1 21 11 287
1979214N12136 1979 63 WP MM NOT_NAMED 1979-08-06 00:00:00 TS 19.7200 123.140 main 167 167 O_OO_____OO___ jtwc_wp WP111979 19.5000 123.000 20 -1 20.0000 123.300 1 23 1000 20.1000 123.400 TD 25 998 19.5000 123.000 TC 20 19.5000 123.000 1 20 12 299
1979214N12136 1979 63 WP MM NOT_NAMED 1979-08-06 03:00:00 TS 20.1014 122.566 main 192 191 P_PP_____PP___ WP111979 20.0419 122.488 17 -1 20.3652 122.671 1 23 1001 20.3000 122.835 TD 25 999 20.0419 122.488 TC 17 19.7580 122.346 1 18 13 307
1979214N12136 1979 63 WP MM NOT_NAMED 1979-08-06 06:00:00 TS 20.5148 122.002 main 193 137 O_OO_____OP___ jtwc_wp WP111979 20.6000 121.900 15 -1 20.7000 122.100 1 23 1002 20.5000 122.300 TD 25 1000 20.6000 121.900 TC 15 20.1172 121.676 1 17 12 303
1979214N12136 1979 63 WP MM NOT_NAMED 1979-08-06 09:00:00 TS 20.7713 121.484 main 137 113 P_PP_____PP___ WP111979 20.8911 121.150 15 -1 20.8445 121.727 1 21 1002 20.6924 121.820 TD 25 1001 20.8911 121.150 TC 15 20.5428 120.992 1 16 10 295
1979214N12136 1979 63 WP MM NOT_NAMED 1979-08-06 12:00:00 TS 20.9300 121.070 main 113 90 O_OO_____OO___ jtwc_wp WP111979 21.0000 120.300 15 -1 20.9000 121.400 0 19 1002 20.9000 121.400 TD 25 1002 21.0000 120.300 TC 15 21.0000 120.300 1 15 5 305
1979214N12136 1979 63 WP MM NOT_NAMED 1979-08-06 15:00:00 TS 21.0725 121.017 main 90 67 __PP__________ WP111979 -1 20.9480 120.983 0 19 1002 21.1348 121.035 TD 25 1002 TC 1 5 313
1979214N12136 1979 63 WP MM NOT_NAMED 1979-08-06 18:00:00 TS 21.3000 120.650 main 67 38 __OO__________ -1 21.0000 120.500 0 19 1002 21.4000 120.700 TD 25 1002 1 9 315
1979214N12136 1979 63 WP MM NOT_NAMED 1979-08-06 21:00:00 NR 21.6927 120.355 main 38 38 ___P__________ -1 0 21.6927 120.355 TD 25 1002 1 9 319
1979214N12136 1979 63 WP MM NOT_NAMED 1979-08-07 00:00:00 NR 22.0000 120.000 main 63 ___O__________ -1 22.0000 120.000 TD 25 1002 9 313

Digital Typhoon Data and Search

About IBTrACS Database

This database is a web-friendly format of International Best Track Archive for Climate Stewardship (IBTrACS), a global best track data archive curated by NOAA dating back to 1842.

Updated: 2021-10-08